createdAt,value
2022-12-03T00:00:54.280Z,102496.09
2022-12-03T00:05:48.832Z,102493.44
2022-12-03T00:10:40.406Z,102495.22
2022-12-03T00:15:37.648Z,102496.84
2022-12-03T00:20:35.574Z,102500.31
2022-12-03T00:25:46.649Z,102491.00
2022-12-03T00:30:45.851Z,102496.84
2022-12-03T00:35:42.608Z,102494.31
2022-12-03T00:40:36.934Z,102482.34
2022-12-03T00:45:38.605Z,102493.44
2022-12-03T00:50:32.884Z,102480.50
2022-12-03T00:55:29.242Z,102468.53
2022-12-03T01:00:25.916Z,102480.28
2022-12-03T01:05:19.813Z,102468.53
2022-12-03T01:10:12.756Z,102469.31
2022-12-03T01:20:10.343Z,102464.22
2022-12-03T01:25:07.353Z,102462.44
2022-12-03T01:29:57.418Z,102441.28
2022-12-03T01:34:55.526Z,102454.69
2022-12-03T01:39:47.261Z,102453.13
2022-12-03T01:44:41.064Z,102450.69
2022-12-03T01:49:33.758Z,102441.38
2022-12-03T01:54:35.901Z,102439.78
2022-12-03T01:59:32.097Z,102446.66
2022-12-03T02:04:25.746Z,102444.91
2022-12-03T02:09:23.328Z,102453.50
2022-12-03T02:14:29.192Z,102455.31
2022-12-03T02:19:28.891Z,102455.88
2022-12-03T02:24:28.407Z,102459.13
2022-12-03T02:29:26.850Z,102441.38
2022-12-03T02:34:35.148Z,102447.25
2022-12-03T02:39:28.969Z,102440.50
2022-12-03T02:44:27.014Z,102443.13
2022-12-03T02:49:17.980Z,102439.78
2022-12-03T02:54:12.355Z,102428.72
2022-12-03T02:59:06.193Z,102431.34
2022-12-03T03:04:05.381Z,102424.50
2022-12-03T03:09:03.815Z,102425.47
2022-12-03T03:13:56.651Z,102428.16
2022-12-03T03:18:48.601Z,102424.72
2022-12-03T03:23:42.117Z,102417.16
2022-12-03T03:28:38.215Z,102416.44
2022-12-03T03:33:42.587Z,102412.84
2022-12-03T03:38:36.899Z,102413.03
2022-12-03T03:43:35.895Z,102411.34
2022-12-03T03:48:28.299Z,102398.59
2022-12-03T03:53:31.089Z,102408.81
2022-12-03T03:58:43.639Z,102393.22
2022-12-03T04:04:01.784Z,102391.75
2022-12-03T04:08:52.363Z,102387.53
2022-12-03T04:13:44.425Z,102394.38
2022-12-03T04:18:57.974Z,102393.63
2022-12-03T04:23:53.765Z,102387.63
2022-12-03T04:28:54.500Z,102386.06
2022-12-03T04:33:59.972Z,102376.66
2022-12-03T04:38:54.348Z,102382.50
2022-12-03T04:43:59.761Z,102377.22
2022-12-03T04:48:53.815Z,102368.88
2022-12-03T04:53:50.014Z,102364.41
2022-12-03T04:58:44.032Z,102359.97
2022-12-03T05:03:44.232Z,102362.63
2022-12-03T05:08:37.703Z,102365.28
2022-12-03T05:13:31.012Z,102361.94
2022-12-03T05:18:31.902Z,102365.56
2022-12-03T05:23:24.583Z,102365.66
2022-12-03T05:28:16.816Z,102358.09
2022-12-03T05:33:08.044Z,102352.34
2022-12-03T05:38:13.844Z,102348.13
2022-12-03T05:43:04.457Z,102343.69
2022-12-03T05:47:57.650Z,102341.22
2022-12-03T05:53:11.413Z,102340.34
2022-12-03T05:58:10.368Z,102345.44
2022-12-03T06:03:11.152Z,102337.91
2022-12-03T06:08:07.939Z,102332.81
2022-12-03T06:13:11.359Z,102336.25
2022-12-03T06:18:23.798Z,102330.94
2022-12-03T06:23:22.774Z,102330.25
2022-12-03T06:28:15.235Z,102321.91
2022-12-03T06:33:10.512Z,102324.38
2022-12-03T06:38:06.221Z,102316.72
2022-12-03T06:43:02.923Z,102321.03
2022-12-03T06:48:02.384Z,102323.50
2022-12-03T06:53:00.719Z,102330.06
2022-12-03T06:57:55.236Z,102326.63
2022-12-03T07:02:49.524Z,102318.75
2022-12-03T07:07:43.654Z,102330.75
2022-12-03T07:12:39.209Z,102328.88
2022-12-03T07:17:30.625Z,102343.38
2022-12-03T07:22:22.702Z,102339.00
2022-12-03T07:27:16.203Z,102339.78
2022-12-03T07:32:10.540Z,102348.88
2022-12-03T07:37:05.321Z,102347.13
2022-12-03T07:41:58.468Z,102340.28
2022-12-03T07:46:51.286Z,102358.22
2022-12-03T07:51:54.827Z,102359.69
2022-12-03T07:56:59.531Z,102342.59
2022-12-03T08:01:54.809Z,102342.59
2022-12-03T08:06:52.996Z,102342.59
2022-12-03T08:11:46.481Z,102343.31
2022-12-03T08:16:49.827Z,102329.59
2022-12-03T08:21:41.750Z,102327.81
2022-12-03T08:26:39.084Z,102322.91
2022-12-03T08:31:33.623Z,102333.81
2022-12-03T08:36:33.546Z,102331.25
2022-12-03T08:41:36.807Z,102332.03
2022-12-03T08:46:33.137Z,102323.41
2022-12-03T08:51:30.814Z,102324.50
2022-12-03T08:56:34.186Z,102320.84
2022-12-03T09:01:44.311Z,102325.94
2022-12-03T09:06:39.165Z,102319.88
2022-12-03T09:11:30.156Z,102311.34
2022-12-03T09:16:22.005Z,102314.66
2022-12-03T09:21:17.942Z,102312.03
2022-12-03T09:26:08.928Z,102300.94
2022-12-03T09:30:59.496Z,102304.38
2022-12-03T09:35:51.432Z,102298.31
2022-12-03T09:40:49.833Z,102300.94
2022-12-03T09:45:44.906Z,102312.03
2022-12-03T09:50:47.507Z,102308.50
2022-12-03T09:55:43.852Z,102300.94
2022-12-03T10:00:39.885Z,102304.47
2022-12-03T10:05:41.468Z,102307.31
2022-12-03T10:10:38.960Z,102306.66
2022-12-03T10:15:49.092Z,102305.06
2022-12-03T10:20:44.977Z,102290.56
2022-12-03T10:25:37.335Z,102291.53
2022-12-03T10:30:32.441Z,102283.78
2022-12-03T10:35:26.666Z,102281.34
2022-12-03T10:40:29.300Z,102275.44
2022-12-03T10:45:26.407Z,102266.25
2022-12-03T10:50:28.300Z,102262.03
2022-12-03T10:55:44.127Z,102249.38
2022-12-03T11:00:39.742Z,102245.94
2022-12-03T11:05:32.459Z,102238.19
2022-12-03T11:10:25.342Z,102244.97
2022-12-03T11:15:19.569Z,102235.66
2022-12-03T11:20:18.119Z,102231.31
2022-12-03T11:25:28.508Z,102224.56
2022-12-03T11:30:42.080Z,102224.56
2022-12-03T11:35:43.821Z,102211.53
2022-12-03T11:40:39.353Z,102214.88
2022-12-03T11:45:45.243Z,102203.44
2022-12-03T11:50:40.345Z,102195.28
2022-12-03T11:55:41.530Z,102190.19
2022-12-03T12:00:43.257Z,102186.16
2022-12-03T12:05:38.630Z,102190.88
2022-12-03T12:10:51.628Z,102180.59
2022-12-03T12:15:55.215Z,102173.94
2022-12-03T12:20:46.185Z,102174.72
2022-12-03T12:25:43.085Z,102170.22
2022-12-03T12:30:37.687Z,102165.69
2022-12-03T12:35:35.281Z,102165.81
2022-12-03T12:40:37.362Z,102164.72
2022-12-03T12:45:34.761Z,102161.38
2022-12-03T12:50:27.076Z,102152.00
2022-12-03T12:55:34.485Z,102148.66
2022-12-03T13:00:28.411Z,102145.31
2022-12-03T13:05:22.666Z,102152.19
2022-12-03T13:10:31.582Z,102154.44
2022-12-03T13:15:39.063Z,102136.41
2022-12-03T13:20:35.033Z,102141.41
2022-12-03T13:26:00.296Z,102124.78
2022-12-03T13:31:03.007Z,102127.13
2022-12-03T13:36:07.809Z,102130.28
2022-12-03T13:41:05.929Z,102127.75
2022-12-03T13:46:07.625Z,102111.47
2022-12-03T13:51:07.564Z,102108.34
2022-12-03T13:56:00.442Z,102096.56
2022-12-03T14:00:55.356Z,102093.84
2022-12-03T14:05:50.290Z,102084.53
2022-12-03T14:10:53.161Z,102086.19
2022-12-03T14:15:49.569Z,102088.75
2022-12-03T14:20:41.573Z,102093.53
2022-12-03T14:25:34.906Z,102094.13
2022-12-03T14:30:30.780Z,102097.28
2022-12-03T14:35:23.963Z,102093.88
2022-12-03T14:40:21.005Z,102093.06
2022-12-03T14:45:13.993Z,102098.84
2022-12-03T14:50:08.566Z,102100.34
2022-12-03T14:55:00.274Z,102102.75
2022-12-03T14:59:57.155Z,102103.56
2022-12-03T15:04:55.759Z,102100.34
2022-12-03T15:10:01.642Z,102092.78
2022-12-03T15:14:53.325Z,102087.88
2022-12-03T15:19:46.529Z,102091.81
2022-12-03T15:24:40.794Z,102078.97
2022-12-03T15:29:36.738Z,102076.25
2022-12-03T15:34:35.708Z,102076.16
2022-12-03T15:39:31.337Z,102078.22
2022-12-03T15:44:46.339Z,102076.16
2022-12-03T15:49:36.965Z,102075.16
2022-12-03T15:54:30.131Z,102064.72
2022-12-03T15:59:25.352Z,102069.81
2022-12-03T16:04:20.712Z,102070.78
2022-12-03T16:09:23.647Z,102066.34
2022-12-03T16:14:19.082Z,102078.50
2022-12-03T16:19:10.950Z,102068.31
2022-12-03T16:24:06.264Z,102078.41
2022-12-03T16:28:57.158Z,102072.44
2022-12-03T16:33:54.986Z,102074.91
2022-12-03T16:38:46.016Z,102071.66
2022-12-03T16:43:48.119Z,102078.41
2022-12-03T16:48:41.246Z,102070.38
2022-12-03T16:53:37.310Z,102070.09
2022-12-03T16:58:31.578Z,102067.38
2022-12-03T17:03:26.710Z,102065.41
2022-12-03T17:08:23.224Z,102072.75
2022-12-03T17:13:15.941Z,102066.38
2022-12-03T17:18:10.983Z,102066.97
2022-12-03T17:23:12.399Z,102062.88
2022-12-03T17:28:05.854Z,102060.09
2022-12-03T17:32:59.168Z,102060.22
2022-12-03T17:37:52.141Z,102054.22
2022-12-03T17:42:47.065Z,102061.78
2022-12-03T17:47:43.192Z,102053.34
2022-12-03T17:52:36.542Z,102062.00
2022-12-03T17:57:30.642Z,102056.91
2022-12-03T18:02:24.634Z,102065.31
2022-12-03T18:07:18.032Z,102061.13
2022-12-03T18:12:16.196Z,102045.94
2022-12-03T18:17:11.499Z,102047.78
2022-12-03T18:22:06.709Z,102040.06
2022-12-03T18:26:59.083Z,102035.19
2022-12-03T18:31:50.628Z,102040.44
2022-12-03T18:36:43.911Z,102035.06
2022-12-03T18:41:36.791Z,102041.91
2022-12-03T18:46:52.607Z,102035.94
2022-12-03T18:51:52.130Z,102036.94
2022-12-03T18:57:11.282Z,102045.34
2022-12-03T19:02:02.101Z,102042.69
2022-12-03T19:06:58.180Z,102036.72
2022-12-03T19:11:50.794Z,102049.16
2022-12-03T19:16:54.207Z,102044.06
2022-12-03T19:22:16.787Z,102039.88
2022-12-03T19:27:11.465Z,102038.09
2022-12-03T19:32:04.823Z,102038.88
2022-12-03T19:36:58.696Z,102037.22
2022-12-03T19:42:04.271Z,102026.16
2022-12-03T19:46:57.604Z,102032.13
2022-12-03T19:51:53.764Z,102029.69
2022-12-03T19:56:52.093Z,102016.97
2022-12-03T20:01:43.766Z,102022.81
2022-12-03T20:06:51.892Z,102010.22
2022-12-03T20:11:55.026Z,102016.19
2022-12-03T20:16:51.923Z,102023.91
2022-12-03T20:21:45.331Z,102011.97
2022-12-03T20:26:36.614Z,102009.53
2022-12-03T20:31:35.294Z,102009.59
2022-12-03T20:36:27.718Z,102006.97
2022-12-03T20:41:20.996Z,102007.75
2022-12-03T20:46:28.034Z,101992.19
2022-12-03T20:51:27.098Z,101990.34
2022-12-03T20:56:29.501Z,101983.41
2022-12-03T21:01:21.280Z,101990.94
2022-12-03T21:06:16.821Z,101999.16
2022-12-03T21:11:12.863Z,101988.97
2022-12-03T21:16:05.374Z,101981.47
2022-12-03T21:21:03.734Z,101988.00
2022-12-03T21:25:58.871Z,101999.06
2022-12-03T21:30:57.099Z,101990.72
2022-12-03T21:35:49.588Z,101994.84
2022-12-03T21:40:39.958Z,101990.72
2022-12-03T21:45:40.609Z,101990.63
2022-12-03T21:50:36.624Z,101981.06
2022-12-03T21:55:26.211Z,101977.75
2022-12-03T22:00:17.376Z,101980.28
2022-12-03T22:05:10.630Z,101983.88
2022-12-03T22:10:05.892Z,101982.91
2022-12-03T22:15:01.431Z,101989.09
2022-12-03T22:19:53.163Z,101982.13
2022-12-03T22:24:46.208Z,101980.28
2022-12-03T22:29:40.021Z,101986.03
2022-12-03T22:34:33.107Z,101985.88
2022-12-03T22:39:24.309Z,101980.69
2022-12-03T22:44:15.872Z,101976.75
2022-12-03T22:49:16.538Z,101967.66
2022-12-03T22:54:07.719Z,101962.38
2022-12-03T22:59:03.443Z,101962.19
2022-12-03T23:03:59.901Z,101964.72
2022-12-03T23:08:54.474Z,101960.44
2022-12-03T23:13:47.336Z,101969.03
2022-12-03T23:18:41.851Z,101959.81
2022-12-03T23:23:35.843Z,101963.94
2022-12-03T23:28:35.911Z,101963.84
2022-12-03T23:33:35.262Z,101959.63
2022-12-03T23:38:28.056Z,101955.25
2022-12-03T23:43:18.897Z,101955.34
2022-12-03T23:48:14.413Z,101954.56
2022-12-03T23:53:07.230Z,101946.03
2022-12-03T23:58:04.102Z,101935.66
